Time;durP1;ratioP1;P1;durP2;ratioP2;P2;SDS_P1;SDS_P2;PMS_P1;PMS_P2;Temp;Humidity;BMP_temperature;BMP_pressure;BME280_temperature;BME280_humidity;BME280_pressure;Samples;Min_cycle;Max_cycle;Signal;HPM_P1;HPM_P2
2023/12/20 00:01:37;;;;;;;2.30;1.60;;;21.60;99.90;;;;;;4979344;28;20047;-49
2023/12/20 00:04:03;;;;;;;1.98;1.48;;;21.60;99.90;;;;;;4979406;28;20035;-49
2023/12/20 00:06:30;;;;;;;3.17;1.60;;;21.60;99.90;;;;;;4979391;28;20045;-49
2023/12/20 00:08:57;;;;;;;2.42;1.58;;;21.50;99.90;;;;;;4979523;28;20027;-49
2023/12/20 00:11:23;;;;;;;3.17;1.10;;;21.60;99.90;;;;;;4979508;28;20030;-49
2023/12/20 00:13:49;;;;;;;2.40;1.55;;;21.50;99.90;;;;;;4979498;28;20041;-50
2023/12/20 00:16:15;;;;;;;2.63;1.30;;;21.50;99.90;;;;;;4979339;28;20023;-50
2023/12/20 00:18:41;;;;;;;3.88;1.73;;;21.50;99.90;;;;;;4979645;28;20019;-49
2023/12/20 00:21:07;;;;;;;2.75;1.63;;;21.50;99.90;;;;;;4979302;28;20090;-49
2023/12/20 00:23:32;;;;;;;1.92;1.38;;;21.50;99.90;;;;;;4979306;28;20034;-49
2023/12/20 00:25:58;;;;;;;2.20;1.55;;;21.50;99.90;;;;;;4979148;28;20093;-49
2023/12/20 00:28:24;;;;;;;3.10;1.55;;;21.40;99.90;;;;;;4979185;28;20027;-49
2023/12/20 00:30:50;;;;;;;1.90;1.20;;;21.40;99.90;;;;;;4979180;28;20027;-50
2023/12/20 00:33:15;;;;;;;2.00;1.25;;;21.40;99.90;;;;;;4979174;28;20033;-49
2023/12/20 00:35:41;;;;;;;1.65;1.40;;;21.40;99.90;;;;;;4979284;28;20029;-49
2023/12/20 00:38:08;;;;;;;2.85;1.40;;;21.40;99.90;;;;;;4977824;28;20092;-49
2023/12/20 00:40:34;;;;;;;3.00;1.27;;;21.40;99.90;;;;;;4993982;28;20086;-49
2023/12/20 00:43:00;;;;;;;2.38;1.40;;;21.40;99.90;;;;;;4979033;28;20101;-49
2023/12/20 00:45:26;;;;;;;2.05;1.45;;;21.40;99.90;;;;;;4976161;28;20113;-49
2023/12/20 00:47:52;;;;;;;2.75;1.77;;;21.40;99.90;;;;;;4975839;28;20023;-49
2023/12/20 00:50:17;;;;;;;1.80;1.10;;;21.40;99.90;;;;;;4975836;28;20081;-49
2023/12/20 00:52:43;;;;;;;1.58;1.30;;;21.40;99.90;;;;;;4976174;28;20023;-50
2023/12/20 00:55:09;;;;;;;1.85;1.38;;;21.30;99.90;;;;;;4990687;28;20045;-49
2023/12/20 00:57:35;;;;;;;2.13;1.45;;;21.30;99.90;;;;;;4975682;28;20042;-49
2023/12/20 01:02:32;;;;;;;1.67;1.30;;;21.30;99.90;;;;;;4974311;28;20065;-48
2023/12/20 01:04:58;;;;;;;3.92;1.23;;;21.30;99.90;;;;;;4975678;28;20035;-49
2023/12/20 01:07:23;;;;;;;2.45;1.30;;;21.30;99.90;;;;;;4975765;28;20019;-50
2023/12/20 01:09:49;;;;;;;2.22;1.35;;;21.30;99.90;;;;;;4975724;28;20053;-48
2023/12/20 01:12:15;;;;;;;1.23;0.90;;;21.20;99.90;;;;;;4975855;28;20031;-49
2023/12/20 01:14:41;;;;;;;1.83;1.08;;;21.20;99.90;;;;;;4975546;28;20491;-48
2023/12/20 01:17:06;;;;;;;1.75;1.35;;;21.20;99.90;;;;;;4975557;28;20042;-50
2023/12/20 01:19:32;;;;;;;2.05;1.23;;;21.20;99.90;;;;;;4975455;28;20061;-48
2023/12/20 01:21:58;;;;;;;3.53;1.50;;;21.20;99.90;;;;;;4974085;28;20031;-48
2023/12/20 01:24:24;;;;;;;3.88;1.20;;;21.20;99.90;;;;;;4975445;28;20082;-48
2023/12/20 01:26:49;;;;;;;1.77;1.25;;;21.10;99.90;;;;;;4975325;28;20510;-48
2023/12/20 01:29:15;;;;;;;1.83;1.20;;;21.10;99.90;;;;;;4975618;28;20026;-48
2023/12/20 01:31:41;;;;;;;2.60;1.33;;;21.20;99.90;;;;;;4975133;28;20105;-49
2023/12/20 01:34:07;;;;;;;2.22;1.30;;;21.10;99.90;;;;;;4975146;28;20062;-49
2023/12/20 01:36:33;;;;;;;1.92;1.20;;;21.10;99.90;;;;;;4975255;28;20034;-48
2023/12/20 01:38:59;;;;;;;2.15;1.50;;;21.10;99.90;;;;;;4975022;28;20061;-48
2023/12/20 01:41:24;;;;;;;4.03;1.40;;;21.10;99.90;;;;;;4975184;28;20022;-48
2023/12/20 01:43:50;;;;;;;1.85;1.08;;;21.00;99.90;;;;;;4975149;28;20533;-49
2023/12/20 01:46:17;;;;;;;1.20;1.08;;;21.10;99.90;;;;;;4974979;28;20041;-48
2023/12/20 01:48:43;;;;;;;1.55;1.23;;;21.00;99.90;;;;;;4974990;28;20074;-48
2023/12/20 01:51:10;;;;;;;1.80;1.10;;;21.00;99.90;;;;;;4975003;28;20391;-48
2023/12/20 01:53:36;;;;;;;1.63;1.15;;;21.00;99.90;;;;;;4974990;28;20023;-48
2023/12/20 01:56:02;;;;;;;1.83;1.10;;;21.00;99.90;;;;;;4974308;28;20487;-48
2023/12/20 01:58:28;;;;;;;3.25;1.08;;;21.00;99.90;;;;;;4974758;28;20035;-48
2023/12/20 02:00:55;;;;;;;1.58;1.30;;;20.90;99.90;;;;;;4986890;23;20055;-49
2023/12/20 02:03:21;;;;;;;1.52;1.05;;;21.00;99.90;;;;;;4974797;28;20089;-49
2023/12/20 02:05:48;;;;;;;1.60;1.23;;;20.90;99.90;;;;;;4974663;28;20114;-49
2023/12/20 02:08:13;;;;;;;2.42;1.08;;;20.90;99.90;;;;;;4989430;28;20089;-49
2023/12/20 02:10:40;;;;;;;2.17;1.23;;;20.90;99.90;;;;;;4974374;28;20031;-49
2023/12/20 02:13:06;;;;;;;9.20;1.30;;;20.90;99.90;;;;;;4974757;28;20106;-49
2023/12/20 02:15:32;;;;;;;3.97;1.70;;;20.90;99.90;;;;;;4974417;28;20531;-49
2023/12/20 02:17:58;;;;;;;3.05;1.85;;;20.90;99.90;;;;;;4973230;28;20027;-49
2023/12/20 02:20:24;;;;;;;1.85;1.27;;;20.90;99.90;;;;;;4974346;28;20368;-49
2023/12/20 02:22:50;;;;;;;1.60;1.35;;;20.90;99.90;;;;;;4974577;28;20019;-49
2023/12/20 02:25:16;;;;;;;1.40;1.10;;;20.80;99.90;;;;;;4974566;28;20039;-49
2023/12/20 02:27:41;;;;;;;1.83;1.30;;;20.90;99.90;;;;;;4974297;28;20102;-49
2023/12/20 02:30:08;;;;;;;1.45;1.23;;;20.90;99.90;;;;;;4974200;28;20490;-49
2023/12/20 02:32:33;;;;;;;2.85;1.45;;;20.80;99.90;;;;;;4974430;28;20357;-49
2023/12/20 02:34:59;;;;;;;1.20;0.95;;;20.80;99.90;;;;;;4974444;28;20029;-49
2023/12/20 02:37:25;;;;;;;2.08;1.20;;;20.80;99.90;;;;;;4974180;28;20030;-49
2023/12/20 02:39:51;;;;;;;1.70;1.30;;;20.80;99.90;;;;;;4974093;28;20094;-49
2023/12/20 02:42:16;;;;;;;2.58;1.30;;;20.80;99.90;;;;;;4974030;28;20022;-49
2023/12/20 02:44:42;;;;;;;2.30;1.27;;;20.80;99.90;;;;;;4973979;28;20030;-49
2023/12/20 02:47:08;;;;;;;2.05;1.27;;;20.70;99.90;;;;;;4974177;28;20357;-49
2023/12/20 02:49:34;;;;;;;1.73;1.25;;;20.80;99.90;;;;;;4974333;28;20022;-49
2023/12/20 02:51:59;;;;;;;2.97;1.05;;;20.70;99.90;;;;;;4973909;28;20475;-49
2023/12/20 02:54:25;;;;;;;2.63;1.20;;;20.70;99.90;;;;;;4973834;28;20023;-49
2023/12/20 02:56:51;;;;;;;1.30;1.00;;;20.70;99.90;;;;;;4973864;28;20158;-49
2023/12/20 02:59:17;;;;;;;1.88;1.10;;;20.70;99.90;;;;;;4973849;28;20158;-50
2023/12/20 03:01:44;;;;;;;2.17;1.40;;;20.70;99.90;;;;;;4974247;28;20055;-49
2023/12/20 03:04:10;;;;;;;3.47;1.40;;;20.70;99.90;;;;;;4973844;28;20380;-49
2023/12/20 03:06:36;;;;;;;2.88;1.10;;;20.60;99.90;;;;;;4973879;28;20113;-49
2023/12/20 03:09:02;;;;;;;2.92;1.55;;;20.60;99.90;;;;;;4972881;28;20516;-49
2023/12/20 03:11:28;;;;;;;2.88;1.27;;;20.60;99.90;;;;;;4973690;28;20368;-49
2023/12/20 03:13:55;;;;;;;2.28;1.42;;;20.60;99.90;;;;;;4973530;28;20050;-49
2023/12/20 03:16:20;;;;;;;1.40;1.00;;;20.60;99.90;;;;;;4973596;28;20434;-49
2023/12/20 03:18:46;;;;;;;2.35;1.45;;;20.60;99.90;;;;;;4973546;28;20110;-49
2023/12/20 03:21:12;;;;;;;2.38;1.40;;;20.60;99.90;;;;;;4973510;28;20027;-49
2023/12/20 03:23:39;;;;;;;1.58;1.20;;;20.60;99.90;;;;;;4973522;28;20055;-49
2023/12/20 03:26:07;;;;;;;1.88;1.25;;;20.60;99.90;;;;;;4973286;28;20507;-50
2023/12/20 03:28:34;;;;;;;1.30;1.15;;;20.60;99.90;;;;;;4973457;28;20030;-49
2023/12/20 03:31:00;;;;;;;1.33;1.10;;;20.60;99.90;;;;;;4973352;28;20050;-49
2023/12/20 03:33:25;;;;;;;4.45;1.63;;;20.50;99.90;;;;;;4973291;28;20027;-49
2023/12/20 03:35:51;;;;;;;1.92;1.40;;;20.50;99.90;;;;;;4972260;28;20034;-49
2023/12/20 03:38:17;;;;;;;2.88;1.60;;;20.50;99.90;;;;;;4973427;28;20027;-49
2023/12/20 03:40:43;;;;;;;2.67;1.90;;;20.50;99.90;;;;;;4973375;28;20034;-49
2023/12/20 03:43:09;;;;;;;1.67;1.20;;;20.50;99.90;;;;;;4973574;28;20061;-50
2023/12/20 03:45:34;;;;;;;2.45;1.23;;;20.50;99.90;;;;;;4973044;28;20039;-49
2023/12/20 03:48:00;;;;;;;2.40;1.60;;;20.50;99.90;;;;;;4973165;28;20038;-49
2023/12/20 03:50:26;;;;;;;3.05;1.90;;;20.50;99.90;;;;;;4973162;28;20036;-49
2023/12/20 03:52:52;;;;;;;2.30;1.55;;;20.50;99.90;;;;;;4973144;28;20452;-49
2023/12/20 03:55:18;;;;;;;2.67;1.88;;;20.50;99.90;;;;;;4973405;28;20042;-50
2023/12/20 03:57:44;;;;;;;3.67;1.80;;;20.50;99.90;;;;;;4973082;28;20035;-49
2023/12/20 04:00:11;;;;;;;1.92;1.50;;;20.50;99.90;;;;;;4973088;28;20091;-49
2023/12/20 04:02:37;;;;;;;2.80;1.70;;;20.40;99.90;;;;;;5002601;23;20043;-54
2023/12/20 04:05:04;;;;;;;3.33;1.92;;;20.40;99.90;;;;;;4992425;28;20104;-53
2023/12/20 04:07:30;;;;;;;2.80;1.90;;;20.40;99.90;;;;;;4992611;28;20145;-53
2023/12/20 04:09:56;;;;;;;2.42;1.92;;;20.40;99.90;;;;;;4992351;28;20466;-53
2023/12/20 04:12:22;;;;;;;1.90;1.50;;;20.40;99.90;;;;;;4992474;28;20102;-53
2023/12/20 04:14:48;;;;;;;2.72;1.60;;;20.40;99.90;;;;;;4992506;28;20138;-55
2023/12/20 04:17:15;;;;;;;3.35;1.85;;;20.30;99.90;;;;;;4992372;28;20026;-51
2023/12/20 04:19:42;;;;;;;2.80;1.23;;;20.40;99.90;;;;;;4994551;28;20479;-53
2023/12/20 04:22:08;;;;;;;3.72;1.50;;;20.40;99.90;;;;;;4996165;28;20121;-53
2023/12/20 04:24:33;;;;;;;1.83;1.48;;;20.30;99.90;;;;;;4995917;28;20449;-53
2023/12/20 04:26:59;;;;;;;3.83;2.00;;;20.40;99.90;;;;;;4995934;28;20088;-53
2023/12/20 04:29:25;;;;;;;1.88;1.45;;;20.30;99.90;;;;;;4995998;28;20033;-54
2023/12/20 04:31:53;;;;;;;2.25;2.03;;;20.30;99.90;;;;;;4995999;28;20443;-52
2023/12/20 04:34:21;;;;;;;2.28;1.50;;;20.30;99.90;;;;;;4995871;28;20026;-53
2023/12/20 04:36:46;;;;;;;3.40;1.95;;;20.30;99.90;;;;;;4995896;28;20027;-52
2023/12/20 04:39:14;;;;;;;3.20;1.58;;;20.30;99.90;;;;;;4996039;28;20042;-52
2023/12/20 04:41:40;;;;;;;2.20;1.70;;;20.30;99.90;;;;;;4995878;28;20432;-53
2023/12/20 04:44:06;;;;;;;2.88;1.70;;;20.30;99.90;;;;;;4995782;28;20049;-54
2023/12/20 04:46:32;;;;;;;2.38;1.77;;;20.30;99.90;;;;;;4995530;28;20034;-54
2023/12/20 04:48:58;;;;;;;2.45;1.40;;;20.30;99.90;;;;;;4995653;28;20026;-54
2023/12/20 04:51:24;;;;;;;2.22;1.58;;;20.30;99.90;;;;;;4995624;28;20026;-54
2023/12/20 04:53:50;;;;;;;2.55;1.55;;;20.20;99.90;;;;;;5010703;28;20022;-55
2023/12/20 04:56:16;;;;;;;2.45;1.67;;;20.20;99.90;;;;;;4994330;28;20375;-54
2023/12/20 04:58:42;;;;;;;3.22;1.83;;;20.20;99.90;;;;;;4995592;28;20030;-54
2023/12/20 05:01:09;;;;;;;2.45;1.63;;;20.20;99.90;;;;;;4996035;28;20517;-54
2023/12/20 05:03:35;;;;;;;1.90;1.33;;;20.20;99.90;;;;;;4994104;28;20117;-53
2023/12/20 05:06:01;;;;;;;2.47;1.50;;;20.20;99.90;;;;;;4995196;28;20161;-54
2023/12/20 05:08:27;;;;;;;3.50;2.10;;;20.20;99.90;;;;;;4995282;28;20110;-54
2023/12/20 05:10:56;;;;;;;2.70;1.25;;;20.20;99.90;;;;;;4995361;28;20022;-55
2023/12/20 05:13:22;;;;;;;2.65;1.60;;;20.20;99.90;;;;;;4995335;28;20113;-53
2023/12/20 05:15:47;;;;;;;1.27;1.00;;;20.20;99.90;;;;;;4995192;28;20105;-54
2023/12/20 05:18:13;;;;;;;2.22;1.40;;;20.20;99.90;;;;;;4995387;28;20026;-53
2023/12/20 05:20:39;;;;;;;2.00;1.60;;;20.20;99.90;;;;;;4995049;28;20026;-54
2023/12/20 05:23:05;;;;;;;2.17;1.98;;;20.20;99.90;;;;;;4995095;28;20034;-54
2023/12/20 05:25:32;;;;;;;2.35;1.40;;;20.10;99.90;;;;;;5010032;28;20037;-54
2023/12/20 05:27:57;;;;;;;1.42;1.10;;;20.10;99.90;;;;;;4995013;28;20505;-54
2023/12/20 05:30:23;;;;;;;1.95;1.60;;;20.10;99.90;;;;;;5009096;28;20062;-54
2023/12/20 05:32:49;;;;;;;2.72;1.50;;;20.20;99.90;;;;;;4993523;28;20449;-54
2023/12/20 05:35:15;;;;;;;1.95;1.20;;;20.10;99.90;;;;;;4995048;28;20037;-54
2023/12/20 05:37:41;;;;;;;2.08;1.40;;;20.10;99.90;;;;;;4994809;28;20077;-54
2023/12/20 05:40:10;;;;;;;3.65;1.40;;;20.10;99.90;;;;;;4994786;28;20030;-54
2023/12/20 05:42:40;;;;;;;3.22;1.30;;;20.10;99.90;;;;;;4994629;28;20029;-54
2023/12/20 05:45:06;;;;;;;2.90;1.42;;;20.10;99.90;;;;;;4994503;28;20084;-54
2023/12/20 05:47:32;;;;;;;1.70;1.48;;;20.00;99.90;;;;;;4994615;28;20433;-54
2023/12/20 05:49:58;;;;;;;2.45;1.40;;;20.00;99.90;;;;;;4993325;28;20054;-52
2023/12/20 05:52:24;;;;;;;5.20;1.77;;;20.00;99.90;;;;;;4994466;28;20158;-53
2023/12/20 05:54:50;;;;;;;3.75;1.70;;;20.00;99.90;;;;;;4994516;28;20097;-53
2023/12/20 05:57:15;;;;;;;2.20;1.35;;;20.00;99.90;;;;;;4994584;28;20026;-52
2023/12/20 05:59:41;;;;;;;2.30;1.48;;;20.00;99.90;;;;;;4994333;28;20542;-53
2023/12/20 06:02:07;;;;;;;2.50;1.40;;;20.00;99.90;;;;;;5009181;28;20384;-53
2023/12/20 06:04:33;;;;;;;1.70;1.00;;;20.00;99.90;;;;;;4994151;28;20386;-52
2023/12/20 06:06:59;;;;;;;3.05;1.60;;;20.00;99.90;;;;;;4994200;28;20041;-53
2023/12/20 06:09:28;;;;;;;2.90;1.50;;;20.00;99.90;;;;;;4994038;28;20022;-53
2023/12/20 06:11:54;;;;;;;3.67;1.52;;;19.90;99.90;;;;;;4994011;28;20030;-52
2023/12/20 06:14:20;;;;;;;3.45;1.38;;;19.90;99.90;;;;;;4994105;28;20023;-52
2023/12/20 06:16:46;;;;;;;3.78;1.50;;;19.90;99.90;;;;;;4994264;28;20030;-52
2023/12/20 06:19:12;;;;;;;2.22;1.33;;;19.90;99.90;;;;;;4993884;28;20026;-52
2023/12/20 06:21:38;;;;;;;4.05;1.00;;;19.90;99.90;;;;;;4993891;28;20058;-53
2023/12/20 06:24:04;;;;;;;2.35;1.10;;;19.90;99.90;;;;;;4993912;28;20056;-52
2023/12/20 06:26:30;;;;;;;2.63;1.27;;;19.90;99.90;;;;;;4993805;28;20034;-52
2023/12/20 06:28:55;;;;;;;2.65;1.23;;;19.90;99.90;;;;;;4992463;28;20026;-52
2023/12/20 06:31:21;;;;;;;2.40;1.30;;;19.90;99.90;;;;;;4993801;28;20073;-52
2023/12/20 06:33:49;;;;;;;1.50;0.90;;;19.90;99.90;;;;;;4993771;28;20057;-52
2023/12/20 06:36:15;;;;;;;;;;;19.90;99.90;;;;;;4992860;28;20475;-52
2023/12/20 06:38:42;;;;;;;2.90;1.23;;;19.90;99.90;;;;;;4993585;28;19953;-53
2023/12/20 06:41:08;;;;;;;1.48;1.13;;;19.90;99.90;;;;;;4993553;28;20493;-53
2023/12/20 06:43:33;;;;;;;1.80;1.30;;;19.90;99.90;;;;;;4993463;28;20034;-53
2023/12/20 06:46:00;;;;;;;4.78;1.33;;;19.90;99.90;;;;;;4993240;28;20088;-53
2023/12/20 06:48:27;;;;;;;1.80;1.27;;;19.90;99.90;;;;;;4993291;28;20191;-52
2023/12/20 06:50:53;;;;;;;1.67;1.25;;;19.90;99.90;;;;;;4993481;28;20029;-54
2023/12/20 06:53:18;;;;;;;1.67;1.30;;;19.80;99.90;;;;;;4993749;28;20030;-53
2023/12/20 06:55:44;;;;;;;2.28;1.08;;;19.80;99.90;;;;;;4993606;28;20058;-52
2023/12/20 06:58:10;;;;;;;2.50;1.42;;;19.80;99.90;;;;;;4993302;28;20097;-53
2023/12/20 07:00:36;;;;;;;4.10;1.10;;;19.80;99.90;;;;;;4993141;28;20026;-53
2023/12/20 07:03:02;;;;;;;2.42;1.70;;;19.80;99.90;;;;;;4993231;28;20031;-53
2023/12/20 07:05:27;;;;;;;2.00;1.02;;;19.80;99.90;;;;;;4993104;28;20494;-53
2023/12/20 07:07:53;;;;;;;2.38;1.20;;;19.80;99.90;;;;;;5008404;28;20026;-53
2023/12/20 07:10:19;;;;;;;2.35;1.63;;;19.80;99.90;;;;;;4993345;28;20033;-52
2023/12/20 07:12:45;;;;;;;1.55;1.20;;;19.80;99.90;;;;;;4993093;28;20030;-53
2023/12/20 07:15:11;;;;;;;2.83;1.52;;;19.80;99.90;;;;;;4992999;28;20080;-52
2023/12/20 07:17:37;;;;;;;1.95;1.58;;;19.80;99.90;;;;;;4992985;28;20138;-52
2023/12/20 07:20:04;;;;;;;4.28;1.23;;;19.80;99.90;;;;;;4993401;28;20054;-53
2023/12/20 07:22:33;;;;;;;2.88;1.30;;;19.80;99.90;;;;;;5008168;28;20030;-54
2023/12/20 07:25:00;;;;;;;2.58;1.50;;;19.80;99.90;;;;;;4992975;28;20398;-53
2023/12/20 07:27:26;;;;;;;2.20;1.45;;;19.80;99.90;;;;;;4991744;28;20022;-53
2023/12/20 07:29:52;;;;;;;2.15;1.50;;;19.80;99.90;;;;;;4993184;28;20033;-54
2023/12/20 07:32:18;;;;;;;1.83;1.35;;;19.80;99.90;;;;;;4992910;28;20026;-53
2023/12/20 07:34:43;;;;;;;2.53;1.55;;;19.80;99.90;;;;;;4993033;28;20034;-53
2023/12/20 07:37:11;;;;;;;6.45;1.48;;;19.80;99.90;;;;;;4992777;28;20494;-53
2023/12/20 07:39:40;;;;;;;3.72;1.73;;;19.80;99.90;;;;;;4992879;28;20030;-54
2023/12/20 07:42:06;;;;;;;2.17;1.58;;;19.80;99.90;;;;;;4992730;28;20022;-54
2023/12/20 07:44:31;;;;;;;3.33;1.90;;;19.80;99.90;;;;;;4992707;28;20037;-53
2023/12/20 07:46:57;;;;;;;6.03;1.50;;;19.80;99.90;;;;;;4993109;28;20088;-53
2023/12/20 07:49:24;;;;;;;3.50;1.65;;;19.80;99.90;;;;;;4993087;28;20096;-52
2023/12/20 07:51:49;;;;;;;3.70;1.70;;;19.80;99.90;;;;;;5007934;28;20038;-52
2023/12/20 07:54:15;;;;;;;2.15;1.40;;;19.90;99.90;;;;;;4994041;28;20027;-53
2023/12/20 07:56:41;;;;;;;4.10;1.85;;;19.90;99.90;;;;;;4996604;28;20026;-53
2023/12/20 07:59:07;;;;;;;4.60;2.45;;;19.90;99.90;;;;;;4996643;28;20038;-53
2023/12/20 08:01:33;;;;;;;2.53;1.58;;;19.90;99.90;;;;;;4996426;28;20526;-53
2023/12/20 08:03:59;;;;;;;3.13;1.60;;;19.90;99.90;;;;;;4996584;28;20037;-53
2023/12/20 08:06:24;;;;;;;2.33;1.40;;;20.00;99.90;;;;;;4996612;28;20102;-52
2023/12/20 08:08:50;;;;;;;4.22;2.08;;;20.00;99.90;;;;;;4996712;28;20438;-53
2023/12/20 08:11:17;;;;;;;3.03;2.10;;;20.00;99.90;;;;;;4996377;28;20026;-53
2023/12/20 08:13:43;;;;;;;4.45;2.28;;;20.00;99.90;;;;;;4996178;28;20026;-53
2023/12/20 08:16:09;;;;;;;2.40;1.58;;;20.10;99.90;;;;;;4996276;28;20037;-52
2023/12/20 08:18:34;;;;;;;2.78;1.63;;;20.10;99.90;;;;;;4996126;28;20048;-53
2023/12/20 08:21:01;;;;;;;3.70;1.85;;;20.10;99.90;;;;;;4995973;28;20025;-53
2023/12/20 08:23:27;;;;;;;2.67;1.55;;;20.10;99.90;;;;;;4996194;28;20033;-53
2023/12/20 08:25:52;;;;;;;3.83;2.10;;;20.20;99.90;;;;;;4996076;28;20034;-53
2023/12/20 08:28:18;;;;;;;2.70;1.67;;;20.20;99.90;;;;;;4995907;28;20030;-52
2023/12/20 08:30:44;;;;;;;3.47;2.00;;;20.30;99.90;;;;;;4995970;28;20117;-54
2023/12/20 08:33:12;;;;;;;2.20;1.80;;;20.30;99.90;;;;;;4994623;28;20027;-53
2023/12/20 08:35:39;;;;;;;3.85;2.25;;;20.30;99.90;;;;;;4995990;28;20059;-53
2023/12/20 08:38:05;;;;;;;3.53;1.88;;;20.30;99.90;;;;;;4995894;28;20030;-53
2023/12/20 08:40:31;;;;;;;3.90;1.95;;;20.40;99.90;;;;;;4995845;28;20031;-53
2023/12/20 08:42:57;;;;;;;3.33;1.80;;;20.40;99.90;;;;;;4995794;28;20470;-54
2023/12/20 08:45:23;;;;;;;2.75;1.80;;;20.40;99.90;;;;;;4995860;28;20030;-53
2023/12/20 08:47:49;;;;;;;2.63;1.98;;;20.50;99.90;;;;;;4995567;28;20026;-53
2023/12/20 08:50:15;;;;;;;3.03;2.17;;;20.50;99.90;;;;;;4995605;28;20019;-52
2023/12/20 08:52:41;;;;;;;3.20;2.17;;;20.60;99.90;;;;;;4995508;28;20026;-53
2023/12/20 08:55:09;;;;;;;2.95;1.90;;;20.60;99.90;;;;;;5010655;28;20026;-53
2023/12/20 08:57:35;;;;;;;;;;;20.60;99.90;;;;;;4995848;28;20023;-53
2023/12/20 09:00:01;;;;;;;3.92;2.13;;;20.60;99.90;;;;;;4995357;28;19906;-53
2023/12/20 09:02:26;;;;;;;2.67;1.77;;;20.60;99.90;;;;;;4995464;28;20129;-52
2023/12/20 09:04:52;;;;;;;5.68;2.03;;;20.70;99.90;;;;;;4994814;28;20412;-53
2023/12/20 09:07:30;;;;;;;3.22;2.10;;;20.70;99.90;;;;;;4994471;28;20045;-53
2023/12/20 09:09:56;;;;;;;2.47;1.80;;;20.80;99.90;;;;;;4995249;28;20029;-53
2023/12/20 09:12:22;;;;;;;2.50;1.85;;;20.80;99.90;;;;;;4995164;28;20065;-55
2023/12/20 09:14:49;;;;;;;2.53;1.83;;;20.80;99.90;;;;;;4995105;28;20026;-53
2023/12/20 09:17:16;;;;;;;4.05;1.83;;;20.80;99.90;;;;;;4995103;28;20026;-53
2023/12/20 09:19:45;;;;;;;2.63;1.90;;;20.90;99.90;;;;;;4994986;28;20031;-54
2023/12/20 09:22:11;;;;;;;4.28;2.00;;;20.90;99.90;;;;;;4994957;28;20364;-54
2023/12/20 09:24:38;;;;;;;3.13;1.73;;;20.90;99.90;;;;;;4994911;28;20124;-55
2023/12/20 09:27:05;;;;;;;3.10;1.90;;;20.90;99.90;;;;;;4994974;28;20026;-55
2023/12/20 09:29:31;;;;;;;3.33;2.42;;;21.00;99.90;;;;;;4994981;28;20387;-54
2023/12/20 09:31:57;;;;;;;3.05;1.85;;;21.00;99.90;;;;;;4995037;28;20501;-54
2023/12/20 09:34:23;;;;;;;2.90;2.05;;;21.00;99.90;;;;;;4994645;28;20029;-54
2023/12/20 09:36:49;;;;;;;4.45;2.25;;;21.10;99.90;;;;;;4994811;28;20029;-54
2023/12/20 09:39:23;;;;;;;2.78;2.08;;;21.10;99.90;;;;;;4994701;28;20035;-54
2023/12/20 09:42:02;;;;;;;3.95;2.20;;;21.20;99.90;;;;;;4994819;28;20084;-55
2023/12/20 09:44:29;;;;;;;3.65;2.17;;;21.10;99.90;;;;;;4994810;28;20026;-54
2023/12/20 09:46:56;;;;;;;5.53;2.25;;;21.20;99.90;;;;;;4994590;28;20030;-54
2023/12/20 09:49:22;;;;;;;4.43;2.33;;;21.20;99.90;;;;;;4995223;28;20049;-54
2023/12/20 09:51:51;;;;;;;3.28;2.55;;;21.30;99.90;;;;;;4994606;28;20037;-54
2023/12/20 09:54:17;;;;;;;3.70;2.33;;;21.30;99.90;;;;;;4994622;28;20430;-54
2023/12/20 09:56:47;;;;;;;4.13;2.53;;;21.30;99.90;;;;;;4994213;28;20506;-54
2023/12/20 09:59:13;;;;;;;4.38;2.38;;;21.40;99.90;;;;;;4994426;28;20526;-54
2023/12/20 10:01:43;;;;;;;3.35;2.47;;;21.40;99.90;;;;;;4994227;28;20046;-55
2023/12/20 10:04:12;;;;;;;3.03;2.03;;;21.50;99.90;;;;;;4994275;28;20034;-54
2023/12/20 10:06:42;;;;;;;7.53;2.55;;;21.50;99.90;;;;;;4994227;28;20471;-55
2023/12/20 10:09:08;;;;;;;5.32;1.90;;;21.50;99.90;;;;;;4994176;28;20042;-54
2023/12/20 10:11:38;;;;;;;2.97;1.90;;;21.60;99.90;;;;;;4994085;28;20519;-52
2023/12/20 10:14:05;;;;;;;4.00;2.10;;;21.60;99.90;;;;;;4993983;28;20029;-53
2023/12/20 10:16:32;;;;;;;3.72;2.22;;;21.70;99.90;;;;;;4993975;28;20023;-53
2023/12/20 10:18:59;;;;;;;5.20;2.17;;;21.80;99.90;;;;;;4992856;28;20029;-54
2023/12/20 10:21:28;;;;;;;5.03;3.03;;;21.80;99.90;;;;;;4993933;28;20381;-54
2023/12/20 10:23:55;;;;;;;4.10;2.40;;;21.80;99.90;;;;;;4993841;28;20030;-53
2023/12/20 10:26:27;;;;;;;3.57;2.10;;;21.90;99.90;;;;;;4993721;28;20049;-54
2023/12/20 10:28:55;;;;;;;4.50;2.58;;;22.00;99.90;;;;;;4993822;28;20256;-54
2023/12/20 10:31:31;;;;;;;3.90;2.70;;;22.00;99.90;;;;;;4993728;28;20018;-54
2023/12/20 10:33:58;;;;;;;3.80;2.55;;;22.10;99.90;;;;;;4994051;28;20506;-54
2023/12/20 10:36:28;;;;;;;2.88;2.40;;;22.10;99.90;;;;;;4993564;28;20030;-52
2023/12/20 10:38:57;;;;;;;4.07;2.65;;;22.10;99.90;;;;;;4993378;28;20026;-53
2023/12/20 10:41:30;;;;;;;4.15;2.22;;;22.20;99.90;;;;;;4993477;28;20034;-55
2023/12/20 10:43:59;;;;;;;4.60;3.05;;;22.30;99.90;;;;;;4993583;28;20491;-53
2023/12/20 10:46:29;;;;;;;4.55;2.75;;;22.30;99.90;;;;;;5008370;28;20066;-54
2023/12/20 10:48:56;;;;;;;5.93;3.15;;;22.30;99.90;;;;;;4993198;28;20538;-54
2023/12/20 10:51:26;;;;;;;4.27;3.50;;;22.40;99.90;;;;;;4993289;28;20035;-54
2023/12/20 10:53:53;;;;;;;5.38;3.05;;;22.40;99.90;;;;;;4992185;28;20347;-54
2023/12/20 10:56:21;;;;;;;6.60;3.72;;;22.40;99.90;;;;;;4993278;28;20022;-55
2023/12/20 10:58:47;;;;;;;;;;;22.50;99.90;;;;;;4992428;28;20053;-54
2023/12/20 11:01:21;;;;;;;6.95;4.20;;;22.50;99.90;;;;;;4993029;28;19910;-53
2023/12/20 11:03:52;;;;;;;5.90;3.67;;;22.60;99.90;;;;;;4993430;28;20058;-54
2023/12/20 11:06:23;;;;;;;6.38;4.47;;;22.60;99.90;;;;;;4993101;28;20043;-54
2023/12/20 11:09:12;;;;;;;10.52;5.60;;;22.70;99.90;;;;;;4993090;28;20064;-55
2023/12/20 11:12:08;;;;;;;10.23;6.47;;;22.70;99.90;;;;;;4992991;28;20522;-54
2023/12/20 11:14:52;;;;;;;8.80;5.32;;;22.70;99.90;;;;;;4993103;28;20038;-54
2023/12/20 11:17:18;;;;;;;8.82;5.70;;;22.80;99.90;;;;;;4992859;28;20018;-53
2023/12/20 11:19:52;;;;;;;10.50;6.47;;;22.80;99.90;;;;;;4992823;28;20390;-54
2023/12/20 11:22:21;;;;;;;10.93;6.57;;;22.80;99.90;;;;;;4992909;28;20030;-53
2023/12/20 11:24:48;;;;;;;8.98;6.47;;;22.90;99.90;;;;;;4992820;28;20026;-53
2023/12/20 11:27:14;;;;;;;12.20;6.50;;;22.90;99.90;;;;;;5008268;28;20501;-53
2023/12/20 11:29:41;;;;;;;11.25;6.38;;;22.90;99.90;;;;;;4991757;28;20105;-55
2023/12/20 11:32:25;;;;;;;8.75;6.47;;;23.00;99.90;;;;;;4992680;28;20022;-55
2023/12/20 11:34:53;;;;;;;11.57;6.53;;;23.00;99.90;;;;;;4991470;28;20030;-55
2023/12/20 11:37:20;;;;;;;10.70;6.60;;;23.00;99.90;;;;;;4992708;28;20490;-53
2023/12/20 11:39:53;;;;;;;10.18;6.43;;;23.10;99.90;;;;;;4992571;28;20074;-53
2023/12/20 11:42:20;;;;;;;9.15;6.50;;;23.10;99.90;;;;;;4992565;28;20431;-53
2023/12/20 11:44:46;;;;;;;10.30;6.65;;;23.10;99.90;;;;;;4992451;28;20034;-53
2023/12/20 11:47:13;;;;;;;8.07;6.07;;;23.20;99.90;;;;;;5007500;28;20042;-53
2023/12/20 11:49:40;;;;;;;8.57;6.18;;;23.20;99.90;;;;;;4992617;28;20050;-53
2023/12/20 11:52:06;;;;;;;9.27;6.65;;;23.20;99.90;;;;;;4992777;28;20038;-53
2023/12/20 11:54:32;;;;;;;9.60;6.25;;;23.30;99.90;;;;;;4992518;28;20096;-54
2023/12/20 11:56:58;;;;;;;9.10;6.18;;;23.30;99.90;;;;;;5007576;28;20037;-53
2023/12/20 11:59:24;;;;;;;9.68;6.15;;;23.30;99.90;;;;;;4992376;28;20034;-54
2023/12/20 12:01:51;;;;;;;8.85;5.97;;;23.30;99.90;;;;;;4992400;28;20503;-55
2023/12/20 12:04:20;;;;;;;8.73;5.97;;;23.40;99.90;;;;;;4992277;28;20031;-53
2023/12/20 12:06:46;;;;;;;7.97;5.25;;;23.40;99.90;;;;;;4992270;28;20287;-53
2023/12/20 12:09:12;;;;;;;9.02;6.03;;;23.40;99.90;;;;;;5007328;28;20432;-54
2023/12/20 12:11:38;;;;;;;5.63;4.72;;;23.40;99.90;;;;;;4992218;28;20066;-53
2023/12/20 12:14:04;;;;;;;9.15;5.85;;;23.50;99.90;;;;;;4991221;28;20022;-53
2023/12/20 12:16:29;;;;;;;6.97;5.13;;;23.50;99.90;;;;;;4992300;28;20037;-54
2023/12/20 12:18:57;;;;;;;6.72;5.00;;;23.50;99.90;;;;;;4992382;28;20048;-54
2023/12/20 12:21:23;;;;;;;7.93;5.57;;;23.50;99.90;;;;;;4992226;28;20099;-54
2023/12/20 12:23:49;;;;;;;9.07;5.32;;;23.50;99.90;;;;;;4992171;28;20031;-54
2023/12/20 12:26:15;;;;;;;7.47;4.93;;;23.60;99.90;;;;;;4992169;28;20030;-54
2023/12/20 12:28:42;;;;;;;10.10;5.25;;;23.60;99.90;;;;;;4992412;28;20026;-54
2023/12/20 12:31:08;;;;;;;9.10;5.38;;;23.60;99.90;;;;;;4992462;28;20037;-54
2023/12/20 12:33:34;;;;;;;8.02;5.10;;;23.70;99.90;;;;;;4992273;28;20050;-54
2023/12/20 12:36:05;;;;;;;9.02;4.95;;;23.70;99.90;;;;;;4992160;28;20097;-54
2023/12/20 12:38:31;;;;;;;6.93;5.00;;;23.70;99.90;;;;;;4992084;28;20034;-54
2023/12/20 12:40:57;;;;;;;6.38;4.43;;;23.70;99.90;;;;;;4994581;28;20022;-54
2023/12/20 12:43:23;;;;;;;7.40;4.45;;;23.70;99.90;;;;;;4995728;28;20050;-55
2023/12/20 12:45:49;;;;;;;6.10;4.45;;;23.80;99.90;;;;;;4995598;28;20089;-53
2023/12/20 12:48:15;;;;;;;6.43;4.30;;;23.80;99.90;;;;;;4995597;28;20495;-54